sensor_id;sensor_type;location;lat;lon;timestamp;P1;durP1;ratioP1;P2;durP2;ratioP2
8757;SDS011;4415;42.152;24.744;2022-07-29T02:14:12;4.40;;;4.10;;
8757;SDS011;4415;42.152;24.744;2022-07-29T02:16:40;5.10;;;4.70;;
8757;SDS011;4415;42.152;24.744;2022-07-29T02:19:07;6.23;;;5.30;;
8757;SDS011;4415;42.152;24.744;2022-07-29T02:21:34;5.70;;;4.73;;
8757;SDS011;4415;42.152;24.744;2022-07-29T02:24:01;6.13;;;5.60;;
8757;SDS011;4415;42.152;24.744;2022-07-29T02:26:27;4.87;;;4.53;;
8757;SDS011;4415;42.152;24.744;2022-07-29T02:28:56;6.00;;;4.83;;
8757;SDS011;4415;42.152;24.744;2022-07-29T02:31:26;5.60;;;5.10;;
8757;SDS011;4415;42.152;24.744;2022-07-29T02:33:57;5.27;;;4.83;;
8757;SDS011;4415;42.152;24.744;2022-07-29T02:36:25;5.17;;;4.67;;
8757;SDS011;4415;42.152;24.744;2022-07-29T02:38:53;6.60;;;5.00;;
8757;SDS011;4415;42.152;24.744;2022-07-29T02:41:26;5.77;;;5.17;;
8757;SDS011;4415;42.152;24.744;2022-07-29T02:43:54;4.97;;;4.47;;
8757;SDS011;4415;42.152;24.744;2022-07-29T02:46:32;4.90;;;4.50;;
8757;SDS011;4415;42.152;24.744;2022-07-29T02:51:32;5.17;;;4.77;;
8757;SDS011;4415;42.152;24.744;2022-07-29T02:54:06;5.80;;;4.57;;
8757;SDS011;4415;42.152;24.744;2022-07-29T02:56:34;5.00;;;4.50;;
8757;SDS011;4415;42.152;24.744;2022-07-29T02:59:03;5.43;;;4.83;;
8757;SDS011;4415;42.152;24.744;2022-07-29T03:01:32;5.27;;;4.77;;
8757;SDS011;4415;42.152;24.744;2022-07-29T03:04:00;5.43;;;4.93;;
8757;SDS011;4415;42.152;24.744;2022-07-29T03:06:28;5.70;;;4.50;;
8757;SDS011;4415;42.152;24.744;2022-07-29T03:08:55;4.83;;;4.43;;
8757;SDS011;4415;42.152;24.744;2022-07-29T03:11:22;4.80;;;4.40;;
8757;SDS011;4415;42.152;24.744;2022-07-29T03:13:48;5.03;;;4.57;;
8757;SDS011;4415;42.152;24.744;2022-07-29T03:16:14;7.57;;;4.83;;
8757;SDS011;4415;42.152;24.744;2022-07-29T03:18:40;6.80;;;4.77;;
8757;SDS011;4415;42.152;24.744;2022-07-29T03:21:06;5.07;;;4.57;;
8757;SDS011;4415;42.152;24.744;2022-07-29T03:23:33;5.50;;;5.00;;
8757;SDS011;4415;42.152;24.744;2022-07-29T03:25:58;5.43;;;5.03;;
8757;SDS011;4415;42.152;24.744;2022-07-29T03:28:24;5.30;;;4.80;;
8757;SDS011;4415;42.152;24.744;2022-07-29T03:30:49;6.07;;;5.00;;
8757;SDS011;4415;42.152;24.744;2022-07-29T03:33:15;7.97;;;5.20;;
8757;SDS011;4415;42.152;24.744;2022-07-29T03:35:40;5.53;;;4.97;;
8757;SDS011;4415;42.152;24.744;2022-07-29T03:38:06;7.33;;;4.90;;
8757;SDS011;4415;42.152;24.744;2022-07-29T03:40:40;5.30;;;4.80;;
8757;SDS011;4415;42.152;24.744;2022-07-29T03:43:11;5.30;;;4.37;;
8757;SDS011;4415;42.152;24.744;2022-07-29T03:45:40;8.83;;;4.80;;
8757;SDS011;4415;42.152;24.744;2022-07-29T03:48:10;4.90;;;4.60;;
8757;SDS011;4415;42.152;24.744;2022-07-29T03:50:39;5.10;;;4.57;;
8757;SDS011;4415;42.152;24.744;2022-07-29T03:53:05;5.57;;;5.18;;
8757;SDS011;4415;42.152;24.744;2022-07-29T03:55:32;8.15;;;6.00;;
8757;SDS011;4415;42.152;24.744;2022-07-29T03:58:01;5.75;;;5.25;;
8757;SDS011;4415;42.152;24.744;2022-07-29T04:00:28;5.63;;;5.13;;
8757;SDS011;4415;42.152;24.744;2022-07-29T04:02:55;6.53;;;5.65;;
8757;SDS011;4415;42.152;24.744;2022-07-29T04:05:21;5.97;;;5.47;;
8757;SDS011;4415;42.152;24.744;2022-07-29T04:07:47;6.10;;;4.90;;
8757;SDS011;4415;42.152;24.744;2022-07-29T04:10:13;7.75;;;5.43;;
8757;SDS011;4415;42.152;24.744;2022-07-29T04:12:40;6.32;;;5.72;;
8757;SDS011;4415;42.152;24.744;2022-07-29T04:15:06;13.05;;;6.43;;
8757;SDS011;4415;42.152;24.744;2022-07-29T04:17:32;9.38;;;5.93;;
8757;SDS011;4415;42.152;24.744;2022-07-29T04:19:57;9.10;;;6.20;;
8757;SDS011;4415;42.152;24.744;2022-07-29T04:22:23;7.00;;;5.40;;
8757;SDS011;4415;42.152;24.744;2022-07-29T04:24:48;5.70;;;5.22;;
8757;SDS011;4415;42.152;24.744;2022-07-29T04:27:13;5.93;;;5.03;;
8757;SDS011;4415;42.152;24.744;2022-07-29T04:29:39;7.30;;;5.53;;
8757;SDS011;4415;42.152;24.744;2022-07-29T04:32:04;6.82;;;6.00;;
8757;SDS011;4415;42.152;24.744;2022-07-29T04:34:30;6.15;;;5.60;;
8757;SDS011;4415;42.152;24.744;2022-07-29T04:36:56;6.82;;;5.55;;
8757;SDS011;4415;42.152;24.744;2022-07-29T04:39:21;6.32;;;5.82;;
8757;SDS011;4415;42.152;24.744;2022-07-29T04:41:46;9.02;;;5.43;;
8757;SDS011;4415;42.152;24.744;2022-07-29T04:44:12;6.13;;;5.63;;
8757;SDS011;4415;42.152;24.744;2022-07-29T04:46:37;6.35;;;5.75;;
8757;SDS011;4415;42.152;24.744;2022-07-29T04:49:03;6.10;;;5.60;;
8757;SDS011;4415;42.152;24.744;2022-07-29T04:51:28;9.50;;;6.18;;
8757;SDS011;4415;42.152;24.744;2022-07-29T04:53:54;8.82;;;5.25;;
8757;SDS011;4415;42.152;24.744;2022-07-29T04:56:19;6.15;;;5.65;;
8757;SDS011;4415;42.152;24.744;2022-07-29T04:58:45;5.53;;;5.03;;
8757;SDS011;4415;42.152;24.744;2022-07-29T05:01:11;6.30;;;5.75;;
8757;SDS011;4415;42.152;24.744;2022-07-29T05:03:36;6.38;;;5.78;;
8757;SDS011;4415;42.152;24.744;2022-07-29T05:06:01;7.72;;;5.70;;
8757;SDS011;4415;42.152;24.744;2022-07-29T05:08:27;6.63;;;6.03;;
8757;SDS011;4415;42.152;24.744;2022-07-29T05:10:52;10.75;;;5.90;;
8757;SDS011;4415;42.152;24.744;2022-07-29T05:13:18;8.20;;;5.38;;
8757;SDS011;4415;42.152;24.744;2022-07-29T05:15:43;7.60;;;6.20;;
8757;SDS011;4415;42.152;24.744;2022-07-29T05:18:09;10.63;;;7.03;;
8757;SDS011;4415;42.152;24.744;2022-07-29T05:20:34;7.72;;;6.50;;
8757;SDS011;4415;42.152;24.744;2022-07-29T05:23:00;7.68;;;5.93;;
8757;SDS011;4415;42.152;24.744;2022-07-29T05:25:26;7.00;;;6.32;;
8757;SDS011;4415;42.152;24.744;2022-07-29T05:27:53;6.25;;;5.75;;
8757;SDS011;4415;42.152;24.744;2022-07-29T05:30:19;6.57;;;5.97;;
8757;SDS011;4415;42.152;24.744;2022-07-29T05:32:45;6.50;;;5.88;;
8757;SDS011;4415;42.152;24.744;2022-07-29T05:35:11;6.10;;;5.55;;
8757;SDS011;4415;42.152;24.744;2022-07-29T05:37:37;8.35;;;6.10;;
8757;SDS011;4415;42.152;24.744;2022-07-29T05:40:03;6.57;;;6.07;;
8757;SDS011;4415;42.152;24.744;2022-07-29T05:42:29;6.60;;;6.00;;
8757;SDS011;4415;42.152;24.744;2022-07-29T05:44:55;6.20;;;5.57;;
8757;SDS011;4415;42.152;24.744;2022-07-29T05:47:20;7.75;;;6.20;;
8757;SDS011;4415;42.152;24.744;2022-07-29T05:49:46;7.40;;;5.55;;
8757;SDS011;4415;42.152;24.744;2022-07-29T05:52:12;6.55;;;5.97;;
8757;SDS011;4415;42.152;24.744;2022-07-29T05:54:40;8.93;;;6.03;;
8757;SDS011;4415;42.152;24.744;2022-07-29T05:57:06;8.23;;;6.38;;
8757;SDS011;4415;42.152;24.744;2022-07-29T05:59:35;5.80;;;5.43;;
8757;SDS011;4415;42.152;24.744;2022-07-29T06:02:01;7.40;;;5.75;;
8757;SDS011;4415;42.152;24.744;2022-07-29T06:04:26;10.18;;;6.20;;
8757;SDS011;4415;42.152;24.744;2022-07-29T06:06:52;6.82;;;6.22;;
8757;SDS011;4415;42.152;24.744;2022-07-29T06:09:18;7.57;;;6.82;;
8757;SDS011;4415;42.152;24.744;2022-07-29T06:11:43;39.17;;;9.48;;
8757;SDS011;4415;42.152;24.744;2022-07-29T06:14:09;19.73;;;8.68;;
8757;SDS011;4415;42.152;24.744;2022-07-29T06:16:34;8.68;;;7.55;;
8757;SDS011;4415;42.152;24.744;2022-07-29T06:19:00;10.07;;;7.35;;
8757;SDS011;4415;42.152;24.744;2022-07-29T06:21:25;14.80;;;8.27;;
8757;SDS011;4415;42.152;24.744;2022-07-29T06:23:50;9.27;;;7.80;;
8757;SDS011;4415;42.152;24.744;2022-07-29T06:26:16;7.80;;;7.10;;
8757;SDS011;4415;42.152;24.744;2022-07-29T06:28:41;8.43;;;7.72;;
8757;SDS011;4415;42.152;24.744;2022-07-29T06:31:07;8.82;;;7.70;;
8757;SDS011;4415;42.152;24.744;2022-07-29T06:33:32;7.43;;;6.70;;
8757;SDS011;4415;42.152;24.744;2022-07-29T06:35:58;9.35;;;7.90;;
8757;SDS011;4415;42.152;24.744;2022-07-29T06:38:24;7.80;;;7.18;;
8757;SDS011;4415;42.152;24.744;2022-07-29T06:40:50;10.52;;;7.72;;
8757;SDS011;4415;42.152;24.744;2022-07-29T06:43:35;8.07;;;7.43;;
8757;SDS011;4415;42.152;24.744;2022-07-29T06:46:15;10.63;;;7.22;;
8757;SDS011;4415;42.152;24.744;2022-07-29T06:48:42;8.80;;;7.80;;
8757;SDS011;4415;42.152;24.744;2022-07-29T06:51:09;7.53;;;6.93;;
8757;SDS011;4415;42.152;24.744;2022-07-29T06:53:36;7.63;;;6.93;;
8757;SDS011;4415;42.152;24.744;2022-07-29T06:56:02;8.23;;;7.10;;
8757;SDS011;4415;42.152;24.744;2022-07-29T06:58:29;7.85;;;7.10;;
8757;SDS011;4415;42.152;24.744;2022-07-29T07:00:56;7.43;;;6.80;;
8757;SDS011;4415;42.152;24.744;2022-07-29T07:03:22;7.80;;;7.10;;
8757;SDS011;4415;42.152;24.744;2022-07-29T07:05:48;7.13;;;6.72;;
8757;SDS011;4415;42.152;24.744;2022-07-29T07:08:14;8.05;;;7.32;;
8757;SDS011;4415;42.152;24.744;2022-07-29T07:10:41;7.85;;;7.20;;
8757;SDS011;4415;42.152;24.744;2022-07-29T07:13:07;11.20;;;8.55;;
8757;SDS011;4415;42.152;24.744;2022-07-29T07:15:32;7.85;;;7.32;;
8757;SDS011;4415;42.152;24.744;2022-07-29T07:17:58;9.15;;;8.38;;
8757;SDS011;4415;42.152;24.744;2022-07-29T07:20:24;8.55;;;7.85;;
8757;SDS011;4415;42.152;24.744;2022-07-29T07:22:50;9.77;;;8.60;;
8757;SDS011;4415;42.152;24.744;2022-07-29T07:25:15;8.45;;;7.85;;
8757;SDS011;4415;42.152;24.744;2022-07-29T07:27:42;16.25;;;8.45;;
8757;SDS011;4415;42.152;24.744;2022-07-29T07:30:08;8.82;;;8.00;;
8757;SDS011;4415;42.152;24.744;2022-07-29T07:32:34;8.63;;;8.02;;
8757;SDS011;4415;42.152;24.744;2022-07-29T07:34:59;9.48;;;8.70;;
8757;SDS011;4415;42.152;24.744;2022-07-29T07:37:25;9.23;;;8.45;;
8757;SDS011;4415;42.152;24.744;2022-07-29T07:39:51;7.90;;;7.30;;
8757;SDS011;4415;42.152;24.744;2022-07-29T07:42:17;8.50;;;7.78;;
8757;SDS011;4415;42.152;24.744;2022-07-29T07:44:43;8.38;;;7.82;;
8757;SDS011;4415;42.152;24.744;2022-07-29T07:47:10;8.20;;;7.20;;
8757;SDS011;4415;42.152;24.744;2022-07-29T07:49:36;8.48;;;7.60;;
8757;SDS011;4415;42.152;24.744;2022-07-29T07:52:01;8.38;;;7.70;;
8757;SDS011;4415;42.152;24.744;2022-07-29T07:54:27;9.20;;;7.68;;
8757;SDS011;4415;42.152;24.744;2022-07-29T07:56:52;8.82;;;7.65;;
8757;SDS011;4415;42.152;24.744;2022-07-29T07:59:18;7.47;;;6.78;;
8757;SDS011;4415;42.152;24.744;2022-07-29T08:01:43;7.68;;;7.07;;
8757;SDS011;4415;42.152;24.744;2022-07-29T08:04:09;7.53;;;6.82;;
8757;SDS011;4415;42.152;24.744;2022-07-29T08:06:34;7.32;;;6.68;;
8757;SDS011;4415;42.152;24.744;2022-07-29T08:09:01;6.45;;;5.95;;
8757;SDS011;4415;42.152;24.744;2022-07-29T08:11:27;5.43;;;5.03;;
8757;SDS011;4415;42.152;24.744;2022-07-29T08:13:53;5.43;;;5.03;;
8757;SDS011;4415;42.152;24.744;2022-07-29T08:16:19;5.90;;;5.32;;
8757;SDS011;4415;42.152;24.744;2022-07-29T08:18:45;5.38;;;5.07;;
8757;SDS011;4415;42.152;24.744;2022-07-29T08:21:12;5.35;;;4.95;;
8757;SDS011;4415;42.152;24.744;2022-07-29T08:23:38;5.10;;;4.60;;
8757;SDS011;4415;42.152;24.744;2022-07-29T08:26:07;5.28;;;4.78;;
8757;SDS011;4415;42.152;24.744;2022-07-29T08:28:38;5.60;;;5.10;;
8757;SDS011;4415;42.152;24.744;2022-07-29T08:31:06;8.57;;;5.70;;
8757;SDS011;4415;42.152;24.744;2022-07-29T08:33:32;5.20;;;4.85;;
8757;SDS011;4415;42.152;24.744;2022-07-29T08:35:57;4.55;;;4.18;;
8757;SDS011;4415;42.152;24.744;2022-07-29T08:38:23;5.43;;;4.43;;
8757;SDS011;4415;42.152;24.744;2022-07-29T08:40:49;5.95;;;4.10;;
8757;SDS011;4415;42.152;24.744;2022-07-29T08:43:14;5.18;;;4.85;;
8757;SDS011;4415;42.152;24.744;2022-07-29T08:45:47;4.80;;;4.40;;
8757;SDS011;4415;42.152;24.744;2022-07-29T08:48:16;4.40;;;3.75;;
8757;SDS011;4415;42.152;24.744;2022-07-29T08:50:44;4.43;;;4.03;;
8757;SDS011;4415;42.152;24.744;2022-07-29T08:53:11;4.50;;;4.20;;
8757;SDS011;4415;42.152;24.744;2022-07-29T08:55:46;4.57;;;4.22;;
8757;SDS011;4415;42.152;24.744;2022-07-29T08:58:13;4.22;;;3.92;;
8757;SDS011;4415;42.152;24.744;2022-07-29T09:00:50;4.55;;;4.35;;
8757;SDS011;4415;42.152;24.744;2022-07-29T09:03:20;4.57;;;4.22;;
8757;SDS011;4415;42.152;24.744;2022-07-29T09:05:48;5.03;;;4.55;;
8757;SDS011;4415;42.152;24.744;2022-07-29T09:08:14;5.32;;;4.70;;
8757;SDS011;4415;42.152;24.744;2022-07-29T09:10:41;4.80;;;4.50;;
8757;SDS011;4415;42.152;24.744;2022-07-29T09:13:07;4.75;;;4.15;;
8757;SDS011;4415;42.152;24.744;2022-07-29T09:15:33;4.60;;;4.15;;
8757;SDS011;4415;42.152;24.744;2022-07-29T09:17:58;5.25;;;4.00;;
8757;SDS011;4415;42.152;24.744;2022-07-29T09:20:25;4.60;;;4.30;;
8757;SDS011;4415;42.152;24.744;2022-07-29T09:23:11;4.75;;;4.35;;
8757;SDS011;4415;42.152;24.744;2022-07-29T09:25:39;4.57;;;4.28;;
8757;SDS011;4415;42.152;24.744;2022-07-29T09:28:12;5.47;;;4.90;;
8757;SDS011;4415;42.152;24.744;2022-07-29T09:30:55;5.60;;;5.20;;
8757;SDS011;4415;42.152;24.744;2022-07-29T09:33:23;13.07;;;11.75;;
8757;SDS011;4415;42.152;24.744;2022-07-29T09:36:05;5.32;;;4.85;;
8757;SDS011;4415;42.152;24.744;2022-07-29T09:38:32;4.85;;;4.45;;
8757;SDS011;4415;42.152;24.744;2022-07-29T09:40:59;3.78;;;3.65;;
8757;SDS011;4415;42.152;24.744;2022-07-29T09:43:26;5.03;;;4.60;;
8757;SDS011;4415;42.152;24.744;2022-07-29T09:45:51;4.78;;;4.43;;
8757;SDS011;4415;42.152;24.744;2022-07-29T09:48:18;4.32;;;4.03;;
8757;SDS011;4415;42.152;24.744;2022-07-29T09:50:45;4.35;;;4.15;;
8757;SDS011;4415;42.152;24.744;2022-07-29T09:53:29;4.35;;;4.00;;
8757;SDS011;4415;42.152;24.744;2022-07-29T09:55:58;4.95;;;4.10;;
8757;SDS011;4415;42.152;24.744;2022-07-29T09:58:24;6.47;;;5.85;;
8757;SDS011;4415;42.152;24.744;2022-07-29T10:00:51;4.28;;;3.97;;
8757;SDS011;4415;42.152;24.744;2022-07-29T10:03:18;4.07;;;3.75;;
8757;SDS011;4415;42.152;24.744;2022-07-29T10:05:44;4.18;;;3.95;;
8757;SDS011;4415;42.152;24.744;2022-07-29T10:08:11;3.90;;;3.70;;
8757;SDS011;4415;42.152;24.744;2022-07-29T10:10:39;4.03;;;3.83;;
8757;SDS011;4415;42.152;24.744;2022-07-29T10:13:10;4.50;;;4.20;;
8757;SDS011;4415;42.152;24.744;2022-07-29T10:15:38;4.43;;;4.18;;
8757;SDS011;4415;42.152;24.744;2022-07-29T10:18:09;4.30;;;3.88;;
8757;SDS011;4415;42.152;24.744;2022-07-29T10:20:36;4.43;;;4.10;;
8757;SDS011;4415;42.152;24.744;2022-07-29T10:23:02;3.50;;;3.30;;
8757;SDS011;4415;42.152;24.744;2022-07-29T10:25:28;4.25;;;3.85;;
8757;SDS011;4415;42.152;24.744;2022-07-29T10:27:54;4.50;;;4.30;;
8757;SDS011;4415;42.152;24.744;2022-07-29T10:30:21;5.07;;;3.80;;
8757;SDS011;4415;42.152;24.744;2022-07-29T10:43:55;5.43;;;4.07;;
8757;SDS011;4415;42.152;24.744;2022-07-29T10:46:24;4.20;;;3.90;;
8757;SDS011;4415;42.152;24.744;2022-07-29T10:49:07;9.35;;;8.35;;
8757;SDS011;4415;42.152;24.744;2022-07-29T10:57:13;4.60;;;4.30;;
8757;SDS011;4415;42.152;24.744;2022-07-29T10:59:49;5.15;;;4.65;;
8757;SDS011;4415;42.152;24.744;2022-07-29T11:05:17;7.55;;;4.10;;
8757;SDS011;4415;42.152;24.744;2022-07-29T11:10:38;4.22;;;3.92;;
8757;SDS011;4415;42.152;24.744;2022-07-29T11:13:05;4.63;;;4.32;;
8757;SDS011;4415;42.152;24.744;2022-07-29T11:15:45;4.40;;;4.10;;
8757;SDS011;4415;42.152;24.744;2022-07-29T11:18:22;4.63;;;4.28;;
8757;SDS011;4415;42.152;24.744;2022-07-29T11:20:48;5.82;;;5.32;;
8757;SDS011;4415;42.152;24.744;2022-07-29T11:23:28;5.50;;;5.00;;
8757;SDS011;4415;42.152;24.744;2022-07-29T11:28:51;4.43;;;4.03;;
8757;SDS011;4415;42.152;24.744;2022-07-29T11:31:31;4.70;;;4.30;;
8757;SDS011;4415;42.152;24.744;2022-07-29T11:37:09;4.95;;;4.55;;
8757;SDS011;4415;42.152;24.744;2022-07-29T11:45:08;12.57;;;5.38;;
8757;SDS011;4415;42.152;24.744;2022-07-29T11:47:50;4.05;;;3.70;;
8757;SDS011;4415;42.152;24.744;2022-07-29T11:50:26;5.70;;;4.93;;
8757;SDS011;4415;42.152;24.744;2022-07-29T11:52:57;6.20;;;5.70;;
8757;SDS011;4415;42.152;24.744;2022-07-29T11:55:23;4.60;;;4.30;;
8757;SDS011;4415;42.152;24.744;2022-07-29T11:57:53;4.07;;;3.80;;
8757;SDS011;4415;42.152;24.744;2022-07-29T12:00:25;4.65;;;4.35;;
8757;SDS011;4415;42.152;24.744;2022-07-29T12:03:22;4.38;;;4.05;;
8757;SDS011;4415;42.152;24.744;2022-07-29T12:05:50;4.03;;;3.80;;
8757;SDS011;4415;42.152;24.744;2022-07-29T12:08:19;4.38;;;3.92;;
8757;SDS011;4415;42.152;24.744;2022-07-29T12:10:47;6.05;;;4.10;;
8757;SDS011;4415;42.152;24.744;2022-07-29T12:13:15;4.88;;;4.40;;
8757;SDS011;4415;42.152;24.744;2022-07-29T12:15:41;4.20;;;3.70;;
8757;SDS011;4415;42.152;24.744;2022-07-29T12:18:16;4.72;;;4.32;;
8757;SDS011;4415;42.152;24.744;2022-07-29T12:20:43;4.60;;;4.30;;
8757;SDS011;4415;42.152;24.744;2022-07-29T12:23:09;4.22;;;3.88;;
8757;SDS011;4415;42.152;24.744;2022-07-29T12:25:37;3.72;;;3.53;;
8757;SDS011;4415;42.152;24.744;2022-07-29T12:28:05;4.00;;;3.80;;
8757;SDS011;4415;42.152;24.744;2022-07-29T12:30:46;4.03;;;3.80;;
8757;SDS011;4415;42.152;24.744;2022-07-29T12:33:17;3.58;;;3.38;;
8757;SDS011;4415;42.152;24.744;2022-07-29T12:35:51;4.13;;;3.75;;
8757;SDS011;4415;42.152;24.744;2022-07-29T12:38:26;3.92;;;3.70;;
8757;SDS011;4415;42.152;24.744;2022-07-29T12:40:52;4.38;;;4.07;;
8757;SDS011;4415;42.152;24.744;2022-07-29T12:43:19;4.30;;;3.88;;
8757;SDS011;4415;42.152;24.744;2022-07-29T12:45:46;4.22;;;3.92;;
8757;SDS011;4415;42.152;24.744;2022-07-29T12:48:17;4.18;;;3.75;;
8757;SDS011;4415;42.152;24.744;2022-07-29T12:50:56;3.70;;;3.50;;
8757;SDS011;4415;42.152;24.744;2022-07-29T12:53:24;4.22;;;3.92;;
8757;SDS011;4415;42.152;24.744;2022-07-29T12:55:50;4.28;;;4.03;;
8757;SDS011;4415;42.152;24.744;2022-07-29T12:58:34;4.97;;;4.50;;
8757;SDS011;4415;42.152;24.744;2022-07-29T13:03:42;5.10;;;3.78;;
8757;SDS011;4415;42.152;24.744;2022-07-29T13:06:29;4.47;;;4.07;;
8757;SDS011;4415;42.152;24.744;2022-07-29T13:11:43;4.63;;;4.22;;
8757;SDS011;4415;42.152;24.744;2022-07-29T13:14:11;5.07;;;4.57;;
8757;SDS011;4415;42.152;24.744;2022-07-29T13:19:39;4.82;;;4.53;;
8757;SDS011;4415;42.152;24.744;2022-07-29T13:22:13;4.95;;;4.55;;
8757;SDS011;4415;42.152;24.744;2022-07-29T13:24:47;4.82;;;4.45;;
8757;SDS011;4415;42.152;24.744;2022-07-29T13:27:13;4.80;;;4.50;;
8757;SDS011;4415;42.152;24.744;2022-07-29T13:29:40;5.07;;;4.78;;
8757;SDS011;4415;42.152;24.744;2022-07-29T13:32:05;5.07;;;4.63;;
8757;SDS011;4415;42.152;24.744;2022-07-29T13:34:31;5.18;;;4.78;;
8757;SDS011;4415;42.152;24.744;2022-07-29T13:36:56;4.75;;;4.43;;
8757;SDS011;4415;42.152;24.744;2022-07-29T13:39:22;4.70;;;4.30;;
8757;SDS011;4415;42.152;24.744;2022-07-29T13:41:47;4.68;;;4.38;;
8757;SDS011;4415;42.152;24.744;2022-07-29T13:44:13;5.68;;;4.43;;
8757;SDS011;4415;42.152;24.744;2022-07-29T13:46:38;4.68;;;4.38;;
8757;SDS011;4415;42.152;24.744;2022-07-29T13:49:03;5.20;;;4.80;;
8757;SDS011;4415;42.152;24.744;2022-07-29T13:51:29;4.40;;;4.18;;
8757;SDS011;4415;42.152;24.744;2022-07-29T13:53:54;4.95;;;4.55;;
8757;SDS011;4415;42.152;24.744;2022-07-29T13:56:19;5.38;;;4.88;;
8757;SDS011;4415;42.152;24.744;2022-07-29T13:58:45;4.32;;;4.03;;
8757;SDS011;4415;42.152;24.744;2022-07-29T14:01:10;4.72;;;4.32;;
8757;SDS011;4415;42.152;24.744;2022-07-29T14:03:36;4.32;;;4.03;;
8757;SDS011;4415;42.152;24.744;2022-07-29T14:06:05;4.53;;;4.10;;
8757;SDS011;4415;42.152;24.744;2022-07-29T14:08:31;4.32;;;4.03;;
8757;SDS011;4415;42.152;24.744;2022-07-29T14:11:01;4.50;;;4.10;;
8757;SDS011;4415;42.152;24.744;2022-07-29T14:13:27;4.63;;;4.28;;
8757;SDS011;4415;42.152;24.744;2022-07-29T14:15:52;4.15;;;3.90;;
8757;SDS011;4415;42.152;24.744;2022-07-29T14:18:18;5.05;;;4.65;;
8757;SDS011;4415;42.152;24.744;2022-07-29T14:20:43;4.00;;;3.70;;
8757;SDS011;4415;42.152;24.744;2022-07-29T14:23:09;4.38;;;3.97;;
8757;SDS011;4415;42.152;24.744;2022-07-29T14:25:34;4.18;;;3.88;;
8757;SDS011;4415;42.152;24.744;2022-07-29T14:28:00;4.57;;;4.28;;
8757;SDS011;4415;42.152;24.744;2022-07-29T14:30:25;4.03;;;3.67;;
8757;SDS011;4415;42.152;24.744;2022-07-29T14:32:50;3.85;;;3.55;;
8757;SDS011;4415;42.152;24.744;2022-07-29T14:35:16;4.25;;;3.85;;
8757;SDS011;4415;42.152;24.744;2022-07-29T14:37:41;3.85;;;3.55;;
8757;SDS011;4415;42.152;24.744;2022-07-29T14:40:07;4.80;;;3.78;;
8757;SDS011;4415;42.152;24.744;2022-07-29T14:42:34;3.95;;;3.55;;
8757;SDS011;4415;42.152;24.744;2022-07-29T14:45:01;3.85;;;3.47;;
8757;SDS011;4415;42.152;24.744;2022-07-29T14:47:26;4.68;;;3.83;;
8757;SDS011;4415;42.152;24.744;2022-07-29T14:49:52;6.28;;;3.83;;
8757;SDS011;4415;42.152;24.744;2022-07-29T14:52:17;3.80;;;3.60;;
8757;SDS011;4415;42.152;24.744;2022-07-29T14:54:43;3.38;;;3.28;;
8757;SDS011;4415;42.152;24.744;2022-07-29T14:57:08;3.83;;;3.58;;
8757;SDS011;4415;42.152;24.744;2022-07-29T14:59:33;3.70;;;3.40;;
8757;SDS011;4415;42.152;24.744;2022-07-29T15:01:59;3.72;;;3.53;;
8757;SDS011;4415;42.152;24.744;2022-07-29T15:04:24;4.28;;;3.97;;
8757;SDS011;4415;42.152;24.744;2022-07-29T15:06:50;3.70;;;3.42;;
8757;SDS011;4415;42.152;24.744;2022-07-29T15:09:16;4.28;;;3.92;;
8757;SDS011;4415;42.152;24.744;2022-07-29T15:11:43;3.83;;;3.63;;
8757;SDS011;4415;42.152;24.744;2022-07-29T15:14:08;3.58;;;3.38;;
8757;SDS011;4415;42.152;24.744;2022-07-29T15:16:35;4.38;;;4.07;;
8757;SDS011;4415;42.152;24.744;2022-07-29T15:19:02;3.80;;;3.60;;
8757;SDS011;4415;42.152;24.744;2022-07-29T15:21:28;3.80;;;3.60;;
8757;SDS011;4415;42.152;24.744;2022-07-29T15:23:54;4.65;;;4.25;;
8757;SDS011;4415;42.152;24.744;2022-07-29T15:26:19;3.75;;;3.55;;
8757;SDS011;4415;42.152;24.744;2022-07-29T15:28:45;3.95;;;3.60;;
8757;SDS011;4415;42.152;24.744;2022-07-29T15:31:10;4.03;;;3.80;;
8757;SDS011;4415;42.152;24.744;2022-07-29T15:33:36;3.72;;;3.42;;
8757;SDS011;4415;42.152;24.744;2022-07-29T15:36:01;4.50;;;4.10;;
8757;SDS011;4415;42.152;24.744;2022-07-29T15:38:29;4.03;;;3.72;;
8757;SDS011;4415;42.152;24.744;2022-07-29T15:40:55;3.88;;;3.67;;
8757;SDS011;4415;42.152;24.744;2022-07-29T15:43:21;4.30;;;3.90;;
8757;SDS011;4415;42.152;24.744;2022-07-29T15:45:46;4.35;;;3.60;;
8757;SDS011;4415;42.152;24.744;2022-07-29T15:48:30;4.45;;;4.10;;
8757;SDS011;4415;42.152;24.744;2022-07-29T15:50:56;4.22;;;3.92;;
8757;SDS011;4415;42.152;24.744;2022-07-29T15:53:23;4.88;;;4.57;;
8757;SDS011;4415;42.152;24.744;2022-07-29T15:55:49;5.25;;;4.35;;
8757;SDS011;4415;42.152;24.744;2022-07-29T15:58:15;4.63;;;4.40;;
8757;SDS011;4415;42.152;24.744;2022-07-29T16:00:40;4.25;;;4.03;;
8757;SDS011;4415;42.152;24.744;2022-07-29T16:03:06;5.07;;;4.68;;
8757;SDS011;4415;42.152;24.744;2022-07-29T16:05:32;4.78;;;4.32;;
8757;SDS011;4415;42.152;24.744;2022-07-29T16:07:57;4.25;;;3.95;;
8757;SDS011;4415;42.152;24.744;2022-07-29T16:10:24;4.15;;;3.95;;
8757;SDS011;4415;42.152;24.744;2022-07-29T16:12:50;5.07;;;4.25;;
8757;SDS011;4415;42.152;24.744;2022-07-29T16:15:15;4.10;;;3.90;;
8757;SDS011;4415;42.152;24.744;2022-07-29T16:17:41;4.32;;;4.13;;
8757;SDS011;4415;42.152;24.744;2022-07-29T16:20:06;4.30;;;4.00;;
8757;SDS011;4415;42.152;24.744;2022-07-29T16:22:32;4.88;;;4.47;;
8757;SDS011;4415;42.152;24.744;2022-07-29T16:24:58;4.53;;;4.07;;
8757;SDS011;4415;42.152;24.744;2022-07-29T16:27:23;4.22;;;4.03;;
8757;SDS011;4415;42.152;24.744;2022-07-29T16:29:52;4.53;;;4.20;;
8757;SDS011;4415;42.152;24.744;2022-07-29T16:32:18;3.80;;;3.60;;
8757;SDS011;4415;42.152;24.744;2022-07-29T16:34:44;4.35;;;4.00;;
8757;SDS011;4415;42.152;24.744;2022-07-29T16:37:09;4.00;;;3.78;;
8757;SDS011;4415;42.152;24.744;2022-07-29T16:39:35;4.97;;;4.57;;
8757;SDS011;4415;42.152;24.744;2022-07-29T16:42:00;4.10;;;3.80;;
8757;SDS011;4415;42.152;24.744;2022-07-29T16:44:26;5.25;;;3.70;;
8757;SDS011;4415;42.152;24.744;2022-07-29T16:46:51;4.60;;;4.20;;
8757;SDS011;4415;42.152;24.744;2022-07-29T16:49:16;4.20;;;3.80;;
8757;SDS011;4415;42.152;24.744;2022-07-29T16:51:42;3.95;;;3.63;;
8757;SDS011;4415;42.152;24.744;2022-07-29T16:54:07;4.78;;;4.28;;
8757;SDS011;4415;42.152;24.744;2022-07-29T16:56:34;4.15;;;3.83;;
8757;SDS011;4415;42.152;24.744;2022-07-29T16:59:00;3.90;;;3.60;;
8757;SDS011;4415;42.152;24.744;2022-07-29T17:01:26;5.53;;;4.00;;
8757;SDS011;4415;42.152;24.744;2022-07-29T17:03:51;6.32;;;3.88;;
8757;SDS011;4415;42.152;24.744;2022-07-29T17:06:36;4.60;;;4.20;;
8757;SDS011;4415;42.152;24.744;2022-07-29T17:09:04;5.95;;;3.95;;
8757;SDS011;4415;42.152;24.744;2022-07-29T17:11:31;3.92;;;3.72;;
8757;SDS011;4415;42.152;24.744;2022-07-29T17:13:58;4.55;;;4.00;;
8757;SDS011;4415;42.152;24.744;2022-07-29T17:16:26;3.83;;;3.60;;
8757;SDS011;4415;42.152;24.744;2022-07-29T17:18:53;4.95;;;3.78;;
8757;SDS011;4415;42.152;24.744;2022-07-29T17:21:20;4.25;;;3.95;;
8757;SDS011;4415;42.152;24.744;2022-07-29T17:23:46;4.40;;;3.92;;
8757;SDS011;4415;42.152;24.744;2022-07-29T17:26:12;4.38;;;4.00;;
8757;SDS011;4415;42.152;24.744;2022-07-29T17:28:38;5.20;;;4.70;;
8757;SDS011;4415;42.152;24.744;2022-07-29T17:31:03;5.97;;;4.45;;
8757;SDS011;4415;42.152;24.744;2022-07-29T17:33:29;4.63;;;4.22;;
8757;SDS011;4415;42.152;24.744;2022-07-29T17:35:54;4.72;;;4.32;;
8757;SDS011;4415;42.152;24.744;2022-07-29T17:38:38;5.05;;;4.55;;
8757;SDS011;4415;42.152;24.744;2022-07-29T17:41:04;4.35;;;4.03;;
8757;SDS011;4415;42.152;24.744;2022-07-29T17:43:29;8.63;;;4.45;;
8757;SDS011;4415;42.152;24.744;2022-07-29T17:45:54;4.10;;;3.70;;
8757;SDS011;4415;42.152;24.744;2022-07-29T17:48:20;4.30;;;3.88;;
8757;SDS011;4415;42.152;24.744;2022-07-29T17:50:46;3.60;;;3.38;;
8757;SDS011;4415;42.152;24.744;2022-07-29T17:53:12;4.35;;;3.67;;
8757;SDS011;4415;42.152;24.744;2022-07-29T17:55:38;8.10;;;4.05;;
8757;SDS011;4415;42.152;24.744;2022-07-29T17:58:04;4.47;;;3.70;;
8757;SDS011;4415;42.152;24.744;2022-07-29T18:00:32;4.32;;;3.65;;